Monday, June 25, 2018, 9:43 AM EDT
Back to Local

KFRG, Farmingdale Republic Airport

Location: Farmingdale, NY, United States Lat: 40.733
Local Time: 9:43 AM EDT (13:43 GMT) Lon: -73.417
Time Zone: US/Eastern Elev: 82 ft

Show me the last for .
Show Decoded

2018-06-25 08:53 METAR KFRG 251253Z 34012KT 10SM CLR 22/16 A2994 RMK AO2 SLP138 T02220156 =
2018-06-25 07:53 METAR KFRG 251153Z 35010KT 10SM CLR 21/16 A2994 RMK AO2 SLP136 70007 T02060156
                 10206 20183 51034 =
2018-06-25 06:53 METAR KFRG 251053Z 35009G17KT 10SM CLR 19/16 A2991 RMK AO2 SLP128 T01940156 =
2018-06-25 06:16 METAR KFRG 251016Z AUTO 34008KT 10SM FEW002 19/16 A2990 RMK AO2 T01890161 =
2018-06-25 05:53 METAR KFRG 250953Z AUTO 34009KT 10SM CLR 18/16 A2988 RMK AO2 PRESRR SLP118
                 T01830161 =
2018-06-25 04:53 METAR KFRG 250853Z AUTO 34012KT 10SM CLR 19/16 A2984 RMK AO2 SLP102 T01890161
                 53011 =
2018-06-25 04:16 METAR KFRG 250816Z AUTO 34010KT 10SM FEW012 19/17 A2983 RMK AO2 T01940172 =
2018-06-25 03:53 METAR KFRG 250753Z AUTO 34009G16KT 10SM OVC012 20/18 A2983 RMK AO2 SLP099
                 T02000183 =
2018-06-25 03:26 METAR KFRG 250726Z AUTO 33006KT 10SM BKN014 20/18 A2981 RMK AO2 T02000178 =
2018-06-25 02:53 METAR KFRG 250653Z AUTO 31005KT 10SM CLR 20/18 A2981 RMK AO2 SLP094 T02000178 =
2018-06-25 01:53 METAR KFRG 250553Z AUTO 32003KT 10SM FEW110 20/18 A2980 RMK AO2 SLP091 60007
                 T02000183 10239 20200 56004 =
2018-06-25 00:53 METAR KFRG 250453Z AUTO 31004KT 10SM CLR 20/19 A2981 RMK AO2 SLP092 T02000189
                 402500178 =
2018-06-24 23:53 METAR KFRG 250353Z AUTO 00000KT 10SM SCT120 21/19 A2981 RMK AO2 RAE26 SLP093
                 P0001 T02110189 =
2018-06-24 22:53 METAR KFRG 250253Z 24004KT 10SM -RA FEW070 BKN095 OVC120 22/20 A2982 RMK AO2 LTG
                 DSNT E AND SE RAB0157 SLP096 P0006 60006 T02170200 53011 =
2018-06-24 22:35 METAR KFRG 250235Z 21003KT 6SM -RA BR FEW049 BKN075 OVC095 22/20 A2982 RMK AO2
                 LTG DSNT E AND SE RAB0157 P0006 T02220200 =
2018-06-24 22:14 METAR KFRG 250214Z 00000KT 4SM VCTS +RA BR SCT050 BKN090 OVC110 22/20 A2983 RMK
                 AO2 LTG DSNT S AND SW RAB0157 P0004 T02220200 =
2018-06-24 21:53 METAR KFRG 250153Z 01006KT 10SM FEW065 SCT085 OVC110 22/20 A2982 RMK AO2 LTG
                 DSNT SW SLP096 T02220200 =
2018-06-24 20:53 METAR KFRG 250053Z 24005KT 10SM BKN090 23/21 A2978 RMK AO2 LTG DSNT N AND NE
                 SLP083 T02330206 =
2018-06-24 19:53 METAR KFRG 242353Z AUTO 22008KT 10SM SCT110 23/21 A2978 RMK AO2 SLP085 T02280206
                 10244 20222 55005 =
2018-06-24 18:53 METAR KFRG 242253Z 21012KT 10SM FEW060 24/20 A2978 RMK AO2 SLP082 T02390200 =
2018-06-24 17:53 METAR KFRG 242153Z 22010KT 10SM SCT060 BKN075 BKN100 23/19 A2979 RMK AO2 SLP087
                 T02330194 =
2018-06-24 16:53 METAR KFRG 242053Z 20013KT 10SM BKN100 24/19 A2980 RMK AO2 SLP090 T02390194
                 55010 =
2018-06-24 15:53 METAR KFRG 241953Z 21011KT 10SM CLR 24/21 A2980 RMK AO2 SLP089 T02390206 =
2018-06-24 15:42 METAR KFRG 241942Z 20011KT 10SM SCT006 24/21 A2980 RMK AO2 T02390206 =
2018-06-24 15:16 METAR KFRG 241916Z 21011KT 9SM BKN007 22/20 A2982 RMK AO2 CIG 006V010 T02220200
                 =
2018-06-24 14:53 METAR KFRG 241853Z 19011KT 10SM SCT009 23/21 A2982 RMK AO2 SLP097 T02280206 =
2018-06-24 13:53 METAR KFRG 241753Z 19010KT 10SM CLR 24/21 A2983 RMK AO2 SLP100 T02390206 10250
                 20183 56007 =
2018-06-24 12:53 METAR KFRG 241653Z 20011KT 10SM FEW015 25/21 A2983 RMK AO2 SLP102 T02500206 =
2018-06-24 12:11 METAR KFRG 241611Z 20010KT 10SM FEW018 24/21 A2984 RMK AO2 T02440206 =
2018-06-24 12:04 METAR KFRG 241604Z 19010KT 10SM BKN018 24/20 A2984 RMK AO2 T02390200 =
2018-06-24 11:53 METAR KFRG 241553Z 19009KT 10SM FEW018 24/21 A2984 RMK AO2 SLP104 T02440206 =
2018-06-24 11:25 METAR KFRG 241525Z 21005KT 10SM SCT011 23/20 A2984 RMK AO2 T02330200 =
2018-06-24 11:03 METAR KFRG 241503Z VRB04KT 10SM OVC011 23/19 A2985 RMK AO2 CIG 008V014 T02280194
                 =
2018-06-24 10:56 METAR KFRG 241456Z VRB03KT 9SM OVC009 22/19 A2985 RMK AO2 CIG 006V013 T02170194
                 =
2018-06-24 10:53 METAR KFRG 241453Z 22004KT 1SM OVC009 22/19 A2985 RMK AO2 SFC VIS 9 CIG 006V013
                 SLP107 T02170189 58001 =
2018-06-24 10:32 METAR KFRG 241432Z 25005KT 1SM OVC005 21/19 A2985 RMK AO2 SFC VIS 8 CIG 003V007
                 T02110194 =
2018-06-24 09:53 METAR KFRG 241353Z 23005KT 1SM BR OVC003 19/19 A2985 RMK AO2 SFC VIS 2 SLP108
                 T01940189 =

Support USWX by starting your Amazon purchase here.